sensor_id;sensor_type;location;lat;lon;timestamp;temperature;humidity
8248;DHT22;4164;49.844;8.830;2023-04-01T00:00:53;10.00;99.90
8248;DHT22;4164;49.844;8.830;2023-04-01T00:03:20;10.00;99.90
8248;DHT22;4164;49.844;8.830;2023-04-01T00:05:46;10.00;99.90
8248;DHT22;4164;49.844;8.830;2023-04-01T00:08:12;10.00;99.90
8248;DHT22;4164;49.844;8.830;2023-04-01T00:10:38;10.00;99.90
8248;DHT22;4164;49.844;8.830;2023-04-01T00:13:04;10.00;99.90
8248;DHT22;4164;49.844;8.830;2023-04-01T00:15:29;10.00;99.90
8248;DHT22;4164;49.844;8.830;2023-04-01T00:17:55;10.00;99.90
8248;DHT22;4164;49.844;8.830;2023-04-01T00:20:21;10.00;99.90
8248;DHT22;4164;49.844;8.830;2023-04-01T00:22:46;10.00;99.90
8248;DHT22;4164;49.844;8.830;2023-04-01T00:25:12;10.00;99.90
8248;DHT22;4164;49.844;8.830;2023-04-01T00:27:38;10.00;99.90
8248;DHT22;4164;49.844;8.830;2023-04-01T00:30:04;10.00;99.90
8248;DHT22;4164;49.844;8.830;2023-04-01T00:32:30;9.90;99.90
8248;DHT22;4164;49.844;8.830;2023-04-01T00:34:56;10.00;99.90
8248;DHT22;4164;49.844;8.830;2023-04-01T00:37:24;9.90;99.90
8248;DHT22;4164;49.844;8.830;2023-04-01T00:39:49;9.90;99.90
8248;DHT22;4164;49.844;8.830;2023-04-01T00:42:15;9.90;99.90
8248;DHT22;4164;49.844;8.830;2023-04-01T00:44:41;9.80;99.90
8248;DHT22;4164;49.844;8.830;2023-04-01T00:47:07;9.80;99.90
8248;DHT22;4164;49.844;8.830;2023-04-01T00:49:36;9.80;99.90
8248;DHT22;4164;49.844;8.830;2023-04-01T00:52:03;9.90;99.90
8248;DHT22;4164;49.844;8.830;2023-04-01T00:54:30;9.90;99.90
8248;DHT22;4164;49.844;8.830;2023-04-01T00:57:15;9.90;99.90
8248;DHT22;4164;49.844;8.830;2023-04-01T00:59:46;9.90;99.90
8248;DHT22;4164;49.844;8.830;2023-04-01T01:02:14;10.00;99.90
8248;DHT22;4164;49.844;8.830;2023-04-01T01:04:40;10.00;99.90
8248;DHT22;4164;49.844;8.830;2023-04-01T01:10:18;10.00;99.90
8248;DHT22;4164;49.844;8.830;2023-04-01T01:13:26;10.00;99.90
8248;DHT22;4164;49.844;8.830;2023-04-01T01:18:58;10.10;99.90
8248;DHT22;4164;49.844;8.830;2023-04-01T01:21:55;10.10;99.90
8248;DHT22;4164;49.844;8.830;2023-04-01T01:27:38;10.10;99.90
8248;DHT22;4164;49.844;8.830;2023-04-01T01:30:13;10.10;99.90
8248;DHT22;4164;49.844;8.830;2023-04-01T01:33:24;10.10;99.90
8248;DHT22;4164;49.844;8.830;2023-04-01T01:35:43;10.10;99.90
8248;DHT22;4164;49.844;8.830;2023-04-01T01:38:15;10.10;99.90
8248;DHT22;4164;49.844;8.830;2023-04-01T01:40:45;10.10;99.90
8248;DHT22;4164;49.844;8.830;2023-04-01T01:43:14;10.10;99.90
8248;DHT22;4164;49.844;8.830;2023-04-01T01:45:49;10.20;99.90
8248;DHT22;4164;49.844;8.830;2023-04-01T01:48:16;10.20;99.90
8248;DHT22;4164;49.844;8.830;2023-04-01T01:50:44;10.20;99.90
8248;DHT22;4164;49.844;8.830;2023-04-01T01:53:12;10.20;99.90
8248;DHT22;4164;49.844;8.830;2023-04-01T01:55:43;10.20;99.90
8248;DHT22;4164;49.844;8.830;2023-04-01T01:58:23;10.20;99.90
8248;DHT22;4164;49.844;8.830;2023-04-01T02:00:56;10.20;99.90
8248;DHT22;4164;49.844;8.830;2023-04-01T02:03:24;10.20;99.90
8248;DHT22;4164;49.844;8.830;2023-04-01T02:05:54;10.20;99.90
8248;DHT22;4164;49.844;8.830;2023-04-01T02:08:26;10.20;99.90
8248;DHT22;4164;49.844;8.830;2023-04-01T02:11:03;10.20;99.90
8248;DHT22;4164;49.844;8.830;2023-04-01T02:13:43;10.10;99.90
8248;DHT22;4164;49.844;8.830;2023-04-01T02:16:43;10.10;99.90
8248;DHT22;4164;49.844;8.830;2023-04-01T02:19:12;10.10;99.90
8248;DHT22;4164;49.844;8.830;2023-04-01T02:21:39;10.10;99.90
8248;DHT22;4164;49.844;8.830;2023-04-01T02:24:09;10.10;99.90
8248;DHT22;4164;49.844;8.830;2023-04-01T02:26:35;10.10;99.90
8248;DHT22;4164;49.844;8.830;2023-04-01T02:29:01;10.10;99.90
8248;DHT22;4164;49.844;8.830;2023-04-01T02:31:29;10.10;99.90
8248;DHT22;4164;49.844;8.830;2023-04-01T02:33:56;10.10;99.90
8248;DHT22;4164;49.844;8.830;2023-04-01T02:36:22;10.10;99.90
8248;DHT22;4164;49.844;8.830;2023-04-01T02:38:49;10.10;99.90
8248;DHT22;4164;49.844;8.830;2023-04-01T02:41:16;10.10;99.90
8248;DHT22;4164;49.844;8.830;2023-04-01T02:43:42;10.10;99.90
8248;DHT22;4164;49.844;8.830;2023-04-01T02:46:07;10.10;99.90
8248;DHT22;4164;49.844;8.830;2023-04-01T02:48:33;10.10;99.90
8248;DHT22;4164;49.844;8.830;2023-04-01T02:50:59;10.10;99.90
8248;DHT22;4164;49.844;8.830;2023-04-01T02:53:24;10.10;99.90
8248;DHT22;4164;49.844;8.830;2023-04-01T02:55:50;10.10;99.90
8248;DHT22;4164;49.844;8.830;2023-04-01T02:58:17;10.10;99.90
8248;DHT22;4164;49.844;8.830;2023-04-01T03:00:43;10.20;99.90
8248;DHT22;4164;49.844;8.830;2023-04-01T03:03:08;10.10;99.90
8248;DHT22;4164;49.844;8.830;2023-04-01T03:05:34;10.10;99.90
8248;DHT22;4164;49.844;8.830;2023-04-01T03:08:00;10.20;99.90
8248;DHT22;4164;49.844;8.830;2023-04-01T03:10:25;10.20;99.90
8248;DHT22;4164;49.844;8.830;2023-04-01T03:12:51;10.10;99.90
8248;DHT22;4164;49.844;8.830;2023-04-01T03:15:16;10.10;99.90
8248;DHT22;4164;49.844;8.830;2023-04-01T03:17:42;10.10;99.90
8248;DHT22;4164;49.844;8.830;2023-04-01T03:20:09;10.10;99.90
8248;DHT22;4164;49.844;8.830;2023-04-01T03:22:36;10.10;99.90
8248;DHT22;4164;49.844;8.830;2023-04-01T03:25:02;10.10;99.90
8248;DHT22;4164;49.844;8.830;2023-04-01T03:27:28;10.10;99.90
8248;DHT22;4164;49.844;8.830;2023-04-01T03:29:54;10.10;99.90
8248;DHT22;4164;49.844;8.830;2023-04-01T03:32:19;10.10;99.90
8248;DHT22;4164;49.844;8.830;2023-04-01T03:34:45;10.00;99.90
8248;DHT22;4164;49.844;8.830;2023-04-01T03:37:10;10.00;99.90
8248;DHT22;4164;49.844;8.830;2023-04-01T03:39:36;10.00;99.90
8248;DHT22;4164;49.844;8.830;2023-04-01T03:42:01;10.00;99.90
8248;DHT22;4164;49.844;8.830;2023-04-01T03:44:31;10.00;99.90
8248;DHT22;4164;49.844;8.830;2023-04-01T03:46:57;9.90;99.90
8248;DHT22;4164;49.844;8.830;2023-04-01T03:49:23;9.90;99.90
8248;DHT22;4164;49.844;8.830;2023-04-01T03:51:48;10.00;99.90
8248;DHT22;4164;49.844;8.830;2023-04-01T03:54:14;10.00;99.90
8248;DHT22;4164;49.844;8.830;2023-04-01T03:56:39;10.00;99.90
8248;DHT22;4164;49.844;8.830;2023-04-01T03:59:07;9.90;99.90
8248;DHT22;4164;49.844;8.830;2023-04-01T04:01:33;10.00;99.90
8248;DHT22;4164;49.844;8.830;2023-04-01T04:03:58;10.00;99.90
8248;DHT22;4164;49.844;8.830;2023-04-01T04:06:25;10.00;99.90
8248;DHT22;4164;49.844;8.830;2023-04-01T04:08:51;10.00;99.90
8248;DHT22;4164;49.844;8.830;2023-04-01T04:11:18;10.00;99.90
8248;DHT22;4164;49.844;8.830;2023-04-01T04:13:45;10.00;99.90
8248;DHT22;4164;49.844;8.830;2023-04-01T04:16:11;10.00;99.90
8248;DHT22;4164;49.844;8.830;2023-04-01T04:18:37;10.00;99.90
8248;DHT22;4164;49.844;8.830;2023-04-01T04:21:03;10.00;99.90
8248;DHT22;4164;49.844;8.830;2023-04-01T04:23:29;10.00;99.90
8248;DHT22;4164;49.844;8.830;2023-04-01T04:26:05;10.00;99.90
8248;DHT22;4164;49.844;8.830;2023-04-01T04:28:31;10.00;99.90
8248;DHT22;4164;49.844;8.830;2023-04-01T04:30:57;10.00;99.90
8248;DHT22;4164;49.844;8.830;2023-04-01T04:33:23;10.00;99.90
8248;DHT22;4164;49.844;8.830;2023-04-01T04:35:49;10.00;99.90
8248;DHT22;4164;49.844;8.830;2023-04-01T04:38:15;10.00;99.90
8248;DHT22;4164;49.844;8.830;2023-04-01T04:40:41;9.90;99.90
8248;DHT22;4164;49.844;8.830;2023-04-01T04:43:13;9.90;99.90
8248;DHT22;4164;49.844;8.830;2023-04-01T04:45:39;9.90;99.90
8248;DHT22;4164;49.844;8.830;2023-04-01T04:48:07;9.90;99.90
8248;DHT22;4164;49.844;8.830;2023-04-01T04:50:33;9.90;99.90
8248;DHT22;4164;49.844;8.830;2023-04-01T04:52:59;9.90;99.90
8248;DHT22;4164;49.844;8.830;2023-04-01T04:55:24;9.90;99.90
8248;DHT22;4164;49.844;8.830;2023-04-01T04:57:50;9.90;99.90
8248;DHT22;4164;49.844;8.830;2023-04-01T05:00:16;9.90;99.90
8248;DHT22;4164;49.844;8.830;2023-04-01T05:02:41;9.90;99.90
8248;DHT22;4164;49.844;8.830;2023-04-01T05:05:07;9.90;99.90
8248;DHT22;4164;49.844;8.830;2023-04-01T05:07:33;9.80;99.90
8248;DHT22;4164;49.844;8.830;2023-04-01T05:09:59;9.80;99.90
8248;DHT22;4164;49.844;8.830;2023-04-01T05:12:24;9.90;99.90
8248;DHT22;4164;49.844;8.830;2023-04-01T05:14:50;9.90;99.90
8248;DHT22;4164;49.844;8.830;2023-04-01T05:17:16;9.90;99.90
8248;DHT22;4164;49.844;8.830;2023-04-01T05:19:41;9.90;99.90
8248;DHT22;4164;49.844;8.830;2023-04-01T05:22:07;9.90;99.90
8248;DHT22;4164;49.844;8.830;2023-04-01T05:24:33;9.90;99.90
8248;DHT22;4164;49.844;8.830;2023-04-01T05:26:59;10.00;99.90
8248;DHT22;4164;49.844;8.830;2023-04-01T05:29:25;10.00;99.90
8248;DHT22;4164;49.844;8.830;2023-04-01T05:31:54;10.00;99.90
8248;DHT22;4164;49.844;8.830;2023-04-01T05:34:20;10.70;99.90
8248;DHT22;4164;49.844;8.830;2023-04-01T05:36:45;10.00;99.90
8248;DHT22;4164;49.844;8.830;2023-04-01T05:39:11;10.00;99.90
8248;DHT22;4164;49.844;8.830;2023-04-01T05:41:37;10.00;99.90
8248;DHT22;4164;49.844;8.830;2023-04-01T05:44:03;10.00;99.90
8248;DHT22;4164;49.844;8.830;2023-04-01T05:46:29;10.00;99.90
8248;DHT22;4164;49.844;8.830;2023-04-01T05:48:55;10.00;99.90
8248;DHT22;4164;49.844;8.830;2023-04-01T05:51:20;10.10;99.90
8248;DHT22;4164;49.844;8.830;2023-04-01T05:53:46;10.10;99.90
8248;DHT22;4164;49.844;8.830;2023-04-01T05:56:12;10.10;99.90
8248;DHT22;4164;49.844;8.830;2023-04-01T05:58:38;10.00;99.90
8248;DHT22;4164;49.844;8.830;2023-04-01T06:01:09;10.00;99.90
8248;DHT22;4164;49.844;8.830;2023-04-01T06:03:34;10.00;99.90
8248;DHT22;4164;49.844;8.830;2023-04-01T06:06:00;10.00;99.90
8248;DHT22;4164;49.844;8.830;2023-04-01T06:08:31;10.00;99.90
8248;DHT22;4164;49.844;8.830;2023-04-01T06:19:38;9.40;99.90
8248;DHT22;4164;49.844;8.830;2023-04-01T06:25:24;9.20;99.90
8248;DHT22;4164;49.844;8.830;2023-04-01T06:30:43;9.20;99.90
8248;DHT22;4164;49.844;8.830;2023-04-01T06:39:22;9.00;99.90
8248;DHT22;4164;49.844;8.830;2023-04-01T06:47:49;8.80;99.90
8248;DHT22;4164;49.844;8.830;2023-04-01T06:51:11;8.80;99.90
8248;DHT22;4164;49.844;8.830;2023-04-01T06:53:39;8.80;99.90
8248;DHT22;4164;49.844;8.830;2023-04-01T06:56:10;8.80;99.90
8248;DHT22;4164;49.844;8.830;2023-04-01T06:58:41;8.90;99.90
8248;DHT22;4164;49.844;8.830;2023-04-01T07:01:11;9.00;99.90
8248;DHT22;4164;49.844;8.830;2023-04-01T07:03:49;8.90;99.90
8248;DHT22;4164;49.844;8.830;2023-04-01T07:06:30;8.90;99.90
8248;DHT22;4164;49.844;8.830;2023-04-01T07:08:59;8.90;99.90
8248;DHT22;4164;49.844;8.830;2023-04-01T07:11:31;8.90;99.90
8248;DHT22;4164;49.844;8.830;2023-04-01T07:14:19;8.90;99.90
8248;DHT22;4164;49.844;8.830;2023-04-01T07:17:00;8.80;99.90
8248;DHT22;4164;49.844;8.830;2023-04-01T07:19:39;8.80;99.90
8248;DHT22;4164;49.844;8.830;2023-04-01T07:22:47;8.80;99.90
8248;DHT22;4164;49.844;8.830;2023-04-01T07:25:25;8.80;99.90
8248;DHT22;4164;49.844;8.830;2023-04-01T07:27:56;8.80;99.90
8248;DHT22;4164;49.844;8.830;2023-04-01T07:30:25;8.70;99.90
8248;DHT22;4164;49.844;8.830;2023-04-01T07:33:14;8.80;99.90
8248;DHT22;4164;49.844;8.830;2023-04-01T07:38:48;8.80;99.90
8248;DHT22;4164;49.844;8.830;2023-04-01T07:41:40;8.80;99.90
8248;DHT22;4164;49.844;8.830;2023-04-01T07:47:12;8.90;99.90
8248;DHT22;4164;49.844;8.830;2023-04-01T07:49:53;8.90;99.90
8248;DHT22;4164;49.844;8.830;2023-04-01T07:55:18;9.10;99.90
8248;DHT22;4164;49.844;8.830;2023-04-01T07:58:01;9.10;99.90
8248;DHT22;4164;49.844;8.830;2023-04-01T08:06:14;9.50;99.90
8248;DHT22;4164;49.844;8.830;2023-04-01T08:09:02;9.60;99.90
8248;DHT22;4164;49.844;8.830;2023-04-01T08:22:16;9.70;99.90
8248;DHT22;4164;49.844;8.830;2023-04-01T08:24:46;9.70;99.90
8248;DHT22;4164;49.844;8.830;2023-04-01T08:27:20;9.70;99.90
8248;DHT22;4164;49.844;8.830;2023-04-01T08:32:24;9.50;99.90
8248;DHT22;4164;49.844;8.830;2023-04-01T08:35:25;9.50;99.90
8248;DHT22;4164;49.844;8.830;2023-04-01T08:37:54;9.50;99.90
8248;DHT22;4164;49.844;8.830;2023-04-01T08:40:42;9.40;99.90
8248;DHT22;4164;49.844;8.830;2023-04-01T08:45:59;9.20;99.90
8248;DHT22;4164;49.844;8.830;2023-04-01T08:54:42;9.10;99.90
8248;DHT22;4164;49.844;8.830;2023-04-01T08:59:57;9.20;99.90
8248;DHT22;4164;49.844;8.830;2023-04-01T09:05:34;9.30;99.90
8248;DHT22;4164;49.844;8.830;2023-04-01T09:31:25;9.40;99.90
8248;DHT22;4164;49.844;8.830;2023-04-01T09:39:29;9.30;99.90
8248;DHT22;4164;49.844;8.830;2023-04-01T09:44:36;9.50;99.90
8248;DHT22;4164;49.844;8.830;2023-04-01T09:50:20;9.50;99.90
8248;DHT22;4164;49.844;8.830;2023-04-01T10:04:07;9.40;99.90
8248;DHT22;4164;49.844;8.830;2023-04-01T10:12:23;9.50;99.90
8248;DHT22;4164;49.844;8.830;2023-04-01T10:15:29;9.50;99.90
8248;DHT22;4164;49.844;8.830;2023-04-01T10:21:07;9.60;99.90
8248;DHT22;4164;49.844;8.830;2023-04-01T10:27:21;9.60;99.90
8248;DHT22;4164;49.844;8.830;2023-04-01T10:33:04;9.70;99.90
8248;DHT22;4164;49.844;8.830;2023-04-01T10:38:34;9.90;99.90
8248;DHT22;4164;49.844;8.830;2023-04-01T10:58:23;10.10;99.90
8248;DHT22;4164;49.844;8.830;2023-04-01T11:15:56;10.60;99.90
8248;DHT22;4164;49.844;8.830;2023-04-01T11:21:46;10.60;99.90
8248;DHT22;4164;49.844;8.830;2023-04-01T11:32:38;10.70;99.90
8248;DHT22;4164;49.844;8.830;2023-04-01T11:35:28;10.60;99.90
8248;DHT22;4164;49.844;8.830;2023-04-01T11:44:11;10.60;99.90
8248;DHT22;4164;49.844;8.830;2023-04-01T11:49:42;10.40;99.90
8248;DHT22;4164;49.844;8.830;2023-04-01T11:52:43;10.40;99.90
8248;DHT22;4164;49.844;8.830;2023-04-01T11:58:21;10.50;99.90
8248;DHT22;4164;49.844;8.830;2023-04-01T12:01:27;10.50;99.90
8248;DHT22;4164;49.844;8.830;2023-04-01T12:07:17;10.50;99.90
8248;DHT22;4164;49.844;8.830;2023-04-01T12:24:28;10.30;99.90
8248;DHT22;4164;49.844;8.830;2023-04-01T12:27:14;10.30;99.90
8248;DHT22;4164;49.844;8.830;2023-04-01T12:30:28;10.40;99.90
8248;DHT22;4164;49.844;8.830;2023-04-01T12:33:10;10.50;99.90
8248;DHT22;4164;49.844;8.830;2023-04-01T12:41:08;10.70;99.90
8248;DHT22;4164;49.844;8.830;2023-04-01T12:43:57;10.80;99.90
8248;DHT22;4164;49.844;8.830;2023-04-01T12:47:00;10.90;99.90
8248;DHT22;4164;49.844;8.830;2023-04-01T12:55:25;11.40;99.90
8248;DHT22;4164;49.844;8.830;2023-04-01T13:00:56;11.20;99.90
8248;DHT22;4164;49.844;8.830;2023-04-01T13:09:52;11.30;99.90
8248;DHT22;4164;49.844;8.830;2023-04-01T13:12:42;11.20;99.90
8248;DHT22;4164;49.844;8.830;2023-04-01T13:20:43;10.90;99.90
8248;DHT22;4164;49.844;8.830;2023-04-01T13:23:13;10.80;99.90
8248;DHT22;4164;49.844;8.830;2023-04-01T13:28:33;10.70;99.90
8248;DHT22;4164;49.844;8.830;2023-04-01T13:45:26;10.60;99.90
8248;DHT22;4164;49.844;8.830;2023-04-01T13:47:43;10.60;99.90
8248;DHT22;4164;49.844;8.830;2023-04-01T13:50:42;10.60;99.90
8248;DHT22;4164;49.844;8.830;2023-04-01T13:56:34;10.80;99.90
8248;DHT22;4164;49.844;8.830;2023-04-01T14:02:31;10.80;99.90
8248;DHT22;4164;49.844;8.830;2023-04-01T14:05:24;10.80;99.90
8248;DHT22;4164;49.844;8.830;2023-04-01T14:08:02;10.90;99.90
8248;DHT22;4164;49.844;8.830;2023-04-01T14:10:40;11.00;99.90
8248;DHT22;4164;49.844;8.830;2023-04-01T14:13:33;11.00;99.90
8248;DHT22;4164;49.844;8.830;2023-04-01T14:16:04;11.00;99.90
8248;DHT22;4164;49.844;8.830;2023-04-01T14:24:22;11.40;99.90
8248;DHT22;4164;49.844;8.830;2023-04-01T14:27:51;11.30;99.90
8248;DHT22;4164;49.844;8.830;2023-04-01T14:40:28;11.20;99.90
8248;DHT22;4164;49.844;8.830;2023-04-01T14:43:30;11.20;99.90
8248;DHT22;4164;49.844;8.830;2023-04-01T14:46:39;11.30;99.90
8248;DHT22;4164;49.844;8.830;2023-04-01T14:49:36;11.30;99.90
8248;DHT22;4164;49.844;8.830;2023-04-01T14:52:16;11.30;99.90
8248;DHT22;4164;49.844;8.830;2023-04-01T14:54:48;11.30;99.90
8248;DHT22;4164;49.844;8.830;2023-04-01T14:57:30;11.30;99.90
8248;DHT22;4164;49.844;8.830;2023-04-01T15:00:00;11.50;99.90
8248;DHT22;4164;49.844;8.830;2023-04-01T15:05:26;11.60;99.90
8248;DHT22;4164;49.844;8.830;2023-04-01T15:08:13;11.40;99.90
8248;DHT22;4164;49.844;8.830;2023-04-01T15:11:03;11.30;99.90
8248;DHT22;4164;49.844;8.830;2023-04-01T15:13:50;11.30;99.90
8248;DHT22;4164;49.844;8.830;2023-04-01T15:16:27;11.20;99.90
8248;DHT22;4164;49.844;8.830;2023-04-01T15:19:08;11.30;99.90
8248;DHT22;4164;49.844;8.830;2023-04-01T15:24:47;11.40;99.90
8248;DHT22;4164;49.844;8.830;2023-04-01T15:27:19;11.30;99.90
8248;DHT22;4164;49.844;8.830;2023-04-01T15:32:56;11.20;99.90
8248;DHT22;4164;49.844;8.830;2023-04-01T15:43:21;11.10;99.90
8248;DHT22;4164;49.844;8.830;2023-04-01T15:49:01;11.30;99.90
8248;DHT22;4164;49.844;8.830;2023-04-01T15:57:16;11.40;99.90
8248;DHT22;4164;49.844;8.830;2023-04-01T16:03:14;11.40;99.90
8248;DHT22;4164;49.844;8.830;2023-04-01T16:05:31;11.40;99.90
8248;DHT22;4164;49.844;8.830;2023-04-01T16:08:22;11.40;99.90
8248;DHT22;4164;49.844;8.830;2023-04-01T16:22:00;11.30;99.90
8248;DHT22;4164;49.844;8.830;2023-04-01T16:24:43;11.20;99.90
8248;DHT22;4164;49.844;8.830;2023-04-01T16:30:36;11.10;99.90
8248;DHT22;4164;49.844;8.830;2023-04-01T16:33:20;11.10;99.90
8248;DHT22;4164;49.844;8.830;2023-04-01T16:41:24;11.10;99.90
8248;DHT22;4164;49.844;8.830;2023-04-01T16:43:55;11.10;99.90
8248;DHT22;4164;49.844;8.830;2023-04-01T16:46:34;11.10;99.90
8248;DHT22;4164;49.844;8.830;2023-04-01T16:54:27;11.00;99.90
8248;DHT22;4164;49.844;8.830;2023-04-01T16:57:10;11.00;99.90
8248;DHT22;4164;49.844;8.830;2023-04-01T16:59:46;10.80;99.90
8248;DHT22;4164;49.844;8.830;2023-04-01T17:02:15;10.80;99.90
8248;DHT22;4164;49.844;8.830;2023-04-01T17:07:34;10.90;99.90
8248;DHT22;4164;49.844;8.830;2023-04-01T17:15:25;10.90;99.90
8248;DHT22;4164;49.844;8.830;2023-04-01T17:23:52;10.90;99.90
8248;DHT22;4164;49.844;8.830;2023-04-01T17:26:41;10.90;99.90
8248;DHT22;4164;49.844;8.830;2023-04-01T17:57:56;10.80;99.90
8248;DHT22;4164;49.844;8.830;2023-04-01T18:06:06;10.70;99.90
8248;DHT22;4164;49.844;8.830;2023-04-01T18:17:25;10.60;99.90
8248;DHT22;4164;49.844;8.830;2023-04-01T18:30:32;10.50;99.90
8248;DHT22;4164;49.844;8.830;2023-04-01T18:33:22;10.50;99.90
8248;DHT22;4164;49.844;8.830;2023-04-01T18:38:26;10.30;99.90
8248;DHT22;4164;49.844;8.830;2023-04-01T18:46:48;10.30;99.90
8248;DHT22;4164;49.844;8.830;2023-04-01T18:49:41;10.30;99.90
8248;DHT22;4164;49.844;8.830;2023-04-01T18:52:43;10.30;99.90
8248;DHT22;4164;49.844;8.830;2023-04-01T18:55:24;10.30;99.90
8248;DHT22;4164;49.844;8.830;2023-04-01T18:57:58;10.20;99.90
8248;DHT22;4164;49.844;8.830;2023-04-01T19:00:41;10.20;99.90
8248;DHT22;4164;49.844;8.830;2023-04-01T19:03:37;10.20;99.90
8248;DHT22;4164;49.844;8.830;2023-04-01T19:06:56;10.20;99.90
8248;DHT22;4164;49.844;8.830;2023-04-01T19:17:16;10.00;99.90
8248;DHT22;4164;49.844;8.830;2023-04-01T19:22:49;10.00;99.90
8248;DHT22;4164;49.844;8.830;2023-04-01T19:28:16;10.00;99.90
8248;DHT22;4164;49.844;8.830;2023-04-01T19:30:58;10.00;99.90
8248;DHT22;4164;49.844;8.830;2023-04-01T19:33:40;10.00;99.90
8248;DHT22;4164;49.844;8.830;2023-04-01T19:36:13;10.00;99.90
8248;DHT22;4164;49.844;8.830;2023-04-01T19:38:59;10.00;99.90
8248;DHT22;4164;49.844;8.830;2023-04-01T19:41:54;10.00;99.90
8248;DHT22;4164;49.844;8.830;2023-04-01T19:44:41;10.00;99.90
8248;DHT22;4164;49.844;8.830;2023-04-01T19:52:29;9.90;99.90
8248;DHT22;4164;49.844;8.830;2023-04-01T20:05:55;9.90;99.90
8248;DHT22;4164;49.844;8.830;2023-04-01T20:11:44;9.80;99.90
8248;DHT22;4164;49.844;8.830;2023-04-01T20:14:28;9.80;99.90
8248;DHT22;4164;49.844;8.830;2023-04-01T20:17:26;9.80;99.90
8248;DHT22;4164;49.844;8.830;2023-04-01T20:20:02;9.80;99.90
8248;DHT22;4164;49.844;8.830;2023-04-01T20:25:17;9.80;99.90
8248;DHT22;4164;49.844;8.830;2023-04-01T20:36:36;9.80;99.90
8248;DHT22;4164;49.844;8.830;2023-04-01T20:47:55;9.80;99.90
8248;DHT22;4164;49.844;8.830;2023-04-01T20:50:31;9.70;99.90
8248;DHT22;4164;49.844;8.830;2023-04-01T20:53:29;9.70;99.90
8248;DHT22;4164;49.844;8.830;2023-04-01T20:59:02;11.10;99.90
8248;DHT22;4164;49.844;8.830;2023-04-01T21:04:27;9.70;99.90
8248;DHT22;4164;49.844;8.830;2023-04-01T21:12:56;9.70;99.90
8248;DHT22;4164;49.844;8.830;2023-04-01T21:21:13;9.80;99.90
8248;DHT22;4164;49.844;8.830;2023-04-01T21:26:43;9.80;99.90
8248;DHT22;4164;49.844;8.830;2023-04-01T21:29:40;9.80;99.90
8248;DHT22;4164;49.844;8.830;2023-04-01T21:32:22;9.80;99.90
8248;DHT22;4164;49.844;8.830;2023-04-01T21:34:55;11.90;99.90
8248;DHT22;4164;49.844;8.830;2023-04-01T21:51:44;9.70;99.90
8248;DHT22;4164;49.844;8.830;2023-04-01T22:02:58;9.80;99.90
8248;DHT22;4164;49.844;8.830;2023-04-01T22:05:46;9.80;99.90
8248;DHT22;4164;49.844;8.830;2023-04-01T22:08:35;9.80;99.90
8248;DHT22;4164;49.844;8.830;2023-04-01T22:13:53;9.80;99.90
8248;DHT22;4164;49.844;8.830;2023-04-01T22:17:13;11.60;99.90
8248;DHT22;4164;49.844;8.830;2023-04-01T22:22:29;9.80;99.90
8248;DHT22;4164;49.844;8.830;2023-04-01T22:25:15;9.80;99.90
8248;DHT22;4164;49.844;8.830;2023-04-01T22:28:00;9.80;99.90
8248;DHT22;4164;49.844;8.830;2023-04-01T22:30:33;9.80;99.90
8248;DHT22;4164;49.844;8.830;2023-04-01T22:41:31;9.80;99.90
8248;DHT22;4164;49.844;8.830;2023-04-01T22:43:59;11.40;99.90
8248;DHT22;4164;49.844;8.830;2023-04-01T22:46:41;9.80;99.90
8248;DHT22;4164;49.844;8.830;2023-04-01T22:49:27;9.80;99.90
8248;DHT22;4164;49.844;8.830;2023-04-01T22:52:03;9.80;99.90
8248;DHT22;4164;49.844;8.830;2023-04-01T22:54:41;9.70;99.90
8248;DHT22;4164;49.844;8.830;2023-04-01T22:57:16;9.70;99.90
8248;DHT22;4164;49.844;8.830;2023-04-01T23:00:01;9.70;99.90
8248;DHT22;4164;49.844;8.830;2023-04-01T23:02:33;9.70;99.90
8248;DHT22;4164;49.844;8.830;2023-04-01T23:05:03;9.70;99.90
8248;DHT22;4164;49.844;8.830;2023-04-01T23:13:00;9.50;99.90
8248;DHT22;4164;49.844;8.830;2023-04-01T23:15:28;9.50;99.90
8248;DHT22;4164;49.844;8.830;2023-04-01T23:18:05;9.40;99.90
8248;DHT22;4164;49.844;8.830;2023-04-01T23:28:55;9.30;99.90
8248;DHT22;4164;49.844;8.830;2023-04-01T23:36:51;9.30;99.90
8248;DHT22;4164;49.844;8.830;2023-04-01T23:39:21;9.20;99.90
8248;DHT22;4164;49.844;8.830;2023-04-01T23:41:48;9.20;99.90
8248;DHT22;4164;49.844;8.830;2023-04-01T23:44:15;9.10;99.90
8248;DHT22;4164;49.844;8.830;2023-04-01T23:46:43;9.20;99.90
8248;DHT22;4164;49.844;8.830;2023-04-01T23:49:17;9.20;99.90
8248;DHT22;4164;49.844;8.830;2023-04-01T23:51:57;9.10;99.90
8248;DHT22;4164;49.844;8.830;2023-04-01T23:54:34;9.10;99.90
8248;DHT22;4164;49.844;8.830;2023-04-01T23:57:10;9.10;99.90
8248;DHT22;4164;49.844;8.830;2023-04-01T23:59:37;9.00;99.90
